createdAt,value
2023-04-19T00:00:10.508Z,73.79
2023-04-19T00:02:42.800Z,74.14
2023-04-19T00:05:14.456Z,74.34
2023-04-19T00:07:42.600Z,74.17
2023-04-19T00:10:13.952Z,74.04
2023-04-19T00:12:43.405Z,74.35
2023-04-19T00:15:15.475Z,74.53
2023-04-19T00:17:43.664Z,74.64
2023-04-19T00:20:12.998Z,74.73
2023-04-19T00:22:47.975Z,74.97
2023-04-19T00:25:18.757Z,74.65
2023-04-19T00:27:50.393Z,75.19
2023-04-19T00:30:18.491Z,75.82
2023-04-19T00:32:49.717Z,76.31
2023-04-19T00:35:18.396Z,76.35
2023-04-19T00:37:50.765Z,76.32
2023-04-19T00:40:21.212Z,76.35
2023-04-19T00:42:50.855Z,76.10
2023-04-19T00:45:24.354Z,75.70
2023-04-19T00:47:53.208Z,75.95
2023-04-19T00:50:21.980Z,76.11
2023-04-19T00:52:53.703Z,75.49
2023-04-19T00:55:26.851Z,75.31
2023-04-19T00:57:56.370Z,74.92
2023-04-19T01:00:24.530Z,75.16
2023-04-19T01:02:54.827Z,74.82
2023-04-19T01:05:23.425Z,74.98
2023-04-19T01:07:56.129Z,74.76
2023-04-19T01:10:26.977Z,74.64
2023-04-19T01:13:05.535Z,74.21
2023-04-19T01:15:36.781Z,73.54
2023-04-19T01:18:08.068Z,73.33
2023-04-19T01:20:36.242Z,73.82
2023-04-19T01:23:12.518Z,73.48
2023-04-19T01:25:44.701Z,72.92
2023-04-19T01:28:20.482Z,72.97
2023-04-19T01:30:53.797Z,72.25
2023-04-19T01:33:23.326Z,72.41
2023-04-19T01:35:51.564Z,72.74
2023-04-19T01:38:23.207Z,72.35
2023-04-19T01:40:56.762Z,71.74
2023-04-19T01:43:26.164Z,72.13
2023-04-19T01:45:59.842Z,71.55
2023-04-19T01:48:31.775Z,71.24
2023-04-19T01:51:03.596Z,71.43
2023-04-19T01:53:33.133Z,71.57
2023-04-19T01:56:13.212Z,71.45
2023-04-19T01:58:43.517Z,71.45
2023-04-19T02:01:17.861Z,71.69
2023-04-19T02:03:46.582Z,71.57
2023-04-19T02:06:19.668Z,71.17
2023-04-19T02:08:50.855Z,71.18
2023-04-19T02:11:19.375Z,71.23
2023-04-19T02:13:48.453Z,70.89
2023-04-19T02:16:19.816Z,70.40
2023-04-19T02:18:53.733Z,70.48
2023-04-19T02:21:23.796Z,70.90
2023-04-19T02:23:54.776Z,70.29
2023-04-19T02:26:24.580Z,70.39
2023-04-19T02:28:57.661Z,70.33
2023-04-19T02:31:34.162Z,69.91
2023-04-19T02:34:02.350Z,69.89
2023-04-19T02:36:33.250Z,69.97
2023-04-19T02:39:12.525Z,69.78
2023-04-19T02:41:43.381Z,69.62
2023-04-19T02:44:13.753Z,69.54
2023-04-19T02:46:41.956Z,69.70
2023-04-19T02:49:12.579Z,69.36
2023-04-19T02:51:49.065Z,69.46
2023-04-19T02:54:28.045Z,69.60
2023-04-19T02:56:58.328Z,69.68
2023-04-19T02:59:37.943Z,69.68
2023-04-19T03:02:10.918Z,69.76
2023-04-19T03:04:39.148Z,69.97
2023-04-19T03:07:08.018Z,69.80
2023-04-19T03:09:41.441Z,69.89
2023-04-19T03:12:09.970Z,70.46
2023-04-19T03:14:40.966Z,70.51
2023-04-19T03:17:13.931Z,70.05
2023-04-19T03:19:45.076Z,70.17
2023-04-19T03:22:22.051Z,70.00
2023-04-19T03:24:51.575Z,70.52
2023-04-19T03:27:23.749Z,70.14
2023-04-19T03:30:02.757Z,70.22
2023-04-19T03:32:39.192Z,70.49
2023-04-19T03:35:11.582Z,69.94
2023-04-19T03:37:43.527Z,69.83
2023-04-19T03:40:16.729Z,69.71
2023-04-19T03:42:49.482Z,69.89
2023-04-19T03:45:32.128Z,69.96
2023-04-19T03:48:03.110Z,70.21
2023-04-19T03:50:34.916Z,69.74
2023-04-19T03:53:06.697Z,70.17
2023-04-19T03:55:37.049Z,69.77
2023-04-19T03:58:08.186Z,70.25
2023-04-19T04:00:56.113Z,69.97
2023-04-19T04:03:27.484Z,69.67
2023-04-19T04:05:58.206Z,69.97
2023-04-19T04:08:27.670Z,69.91
2023-04-19T04:11:08.389Z,70.00
2023-04-19T04:13:38.223Z,69.94
2023-04-19T04:16:29.529Z,70.19
2023-04-19T04:19:02.083Z,69.96
2023-04-19T04:21:40.288Z,69.99
2023-04-19T04:24:09.815Z,70.04
2023-04-19T04:26:51.969Z,70.18
2023-04-19T04:29:33.516Z,69.97
2023-04-19T04:32:04.231Z,69.95
2023-04-19T04:34:42.928Z,69.59
2023-04-19T04:37:19.069Z,70.00
2023-04-19T04:39:50.787Z,69.89
2023-04-19T04:42:24.661Z,70.00
2023-04-19T04:44:55.577Z,69.50
2023-04-19T04:47:33.330Z,70.12
2023-04-19T04:50:05.084Z,69.95
2023-04-19T04:52:35.718Z,70.40
2023-04-19T04:55:14.586Z,70.31
2023-04-19T04:57:48.940Z,70.71
2023-04-19T05:00:26.515Z,70.95
2023-04-19T05:03:04.874Z,70.90
2023-04-19T05:05:37.608Z,71.65
2023-04-19T05:08:06.318Z,71.64
2023-04-19T05:10:36.819Z,70.89
2023-04-19T05:13:06.329Z,71.44
2023-04-19T05:15:37.377Z,71.44
2023-04-19T05:18:08.519Z,70.09
2023-04-19T05:20:36.875Z,70.33
2023-04-19T05:23:18.685Z,70.66
2023-04-19T05:25:50.874Z,70.57
2023-04-19T05:28:22.992Z,70.38
2023-04-19T05:31:12.382Z,69.87
2023-04-19T05:33:48.686Z,69.30
2023-04-19T05:36:16.808Z,69.86
2023-04-19T05:38:46.563Z,69.54
2023-04-19T05:41:17.453Z,69.14
2023-04-19T05:43:52.062Z,68.97
2023-04-19T05:46:21.222Z,68.53
2023-04-19T05:48:55.147Z,68.39
2023-04-19T05:51:49.182Z,67.50
2023-04-19T05:54:35.976Z,66.27
2023-04-19T05:57:05.604Z,66.05
2023-04-19T05:59:35.151Z,66.04
2023-04-19T06:02:05.881Z,66.00
2023-04-19T06:04:34.390Z,66.50
2023-04-19T06:07:06.216Z,66.11
2023-04-19T06:09:42.330Z,66.34
2023-04-19T06:12:14.129Z,66.26
2023-04-19T06:14:43.627Z,65.50
2023-04-19T06:17:11.938Z,64.79
2023-04-19T06:19:42.410Z,64.71
2023-04-19T06:22:13.525Z,63.90
2023-04-19T06:24:43.780Z,63.70
2023-04-19T06:27:11.953Z,62.19
2023-04-19T06:29:40.062Z,61.15
2023-04-19T06:32:10.537Z,60.90
2023-04-19T06:34:43.082Z,61.21
2023-04-19T06:37:14.246Z,60.79
2023-04-19T06:39:42.429Z,61.38
2023-04-19T06:42:10.892Z,60.67
2023-04-19T06:44:42.150Z,61.52
2023-04-19T06:47:12.813Z,61.76
2023-04-19T06:49:41.027Z,62.25
2023-04-19T06:52:09.301Z,62.25
2023-04-19T06:54:40.856Z,61.90
2023-04-19T06:57:09.023Z,61.19
2023-04-19T06:59:39.792Z,61.66
2023-04-19T07:02:12.514Z,60.98
2023-04-19T07:04:40.932Z,60.15
2023-04-19T07:07:09.195Z,60.76
2023-04-19T07:09:39.355Z,60.52
2023-04-19T07:12:07.950Z,60.26
2023-04-19T07:14:36.183Z,59.42
2023-04-19T07:17:06.096Z,59.94
2023-04-19T07:19:36.545Z,59.79
2023-04-19T07:22:06.214Z,59.10
2023-04-19T07:24:40.287Z,59.04
2023-04-19T07:27:08.535Z,58.77
2023-04-19T07:29:36.708Z,58.62
2023-04-19T07:32:08.860Z,59.10
2023-04-19T07:34:42.588Z,59.01
2023-04-19T07:37:13.083Z,59.06
2023-04-19T07:39:41.482Z,58.86
2023-04-19T07:42:09.677Z,58.05
2023-04-19T07:44:45.098Z,58.00
2023-04-19T07:47:16.147Z,58.57
2023-04-19T07:49:45.674Z,56.41
2023-04-19T07:52:13.843Z,56.54
2023-04-19T07:54:42.169Z,56.06
2023-04-19T07:57:10.293Z,54.76
2023-04-19T07:59:38.467Z,54.64
2023-04-19T08:02:08.921Z,54.27
2023-04-19T08:04:37.964Z,53.36
2023-04-19T08:07:10.301Z,53.48
2023-04-19T08:09:43.428Z,50.76
2023-04-19T08:12:26.268Z,49.42
2023-04-19T08:15:15.500Z,49.26
2023-04-19T08:17:52.487Z,47.36
2023-04-19T08:20:21.662Z,46.72
2023-04-19T08:22:51.328Z,46.45
2023-04-19T08:25:19.796Z,45.09
2023-04-19T08:27:49.738Z,44.97
2023-04-19T08:30:21.256Z,44.00
2023-04-19T08:32:49.527Z,44.10
2023-04-19T08:35:18.292Z,44.33
2023-04-19T08:37:50.009Z,42.71
2023-04-19T08:40:21.480Z,41.98
2023-04-19T08:42:49.674Z,41.68
2023-04-19T08:45:27.051Z,42.30
2023-04-19T08:48:01.384Z,42.73
2023-04-19T08:50:37.138Z,41.53
2023-04-19T08:53:23.704Z,42.30
2023-04-19T08:56:12.728Z,42.59
2023-04-19T08:59:03.938Z,41.17
2023-04-19T09:01:35.869Z,42.42
2023-04-19T09:04:26.252Z,41.00
2023-04-19T09:06:56.777Z,40.74
2023-04-19T09:12:00.302Z,40.74
2023-04-19T09:14:29.756Z,40.10
2023-04-19T09:17:17.456Z,38.22
2023-04-19T09:19:50.474Z,39.49
2023-04-19T09:22:19.433Z,39.71
2023-04-19T09:27:29.145Z,38.54
2023-04-19T09:29:58.883Z,38.43
2023-04-19T09:32:28.089Z,37.68
2023-04-19T09:34:57.942Z,39.26
2023-04-19T09:40:01.372Z,38.13
2023-04-19T09:45:30.137Z,39.12
2023-04-19T09:48:04.311Z,38.87
2023-04-19T09:50:34.023Z,37.73
2023-04-19T09:53:07.729Z,38.50
2023-04-19T09:55:48.961Z,38.44
2023-04-19T09:58:34.400Z,37.49
2023-04-19T10:01:15.509Z,37.25
2023-04-19T10:03:46.868Z,38.34
2023-04-19T10:06:40.065Z,38.54
2023-04-19T10:09:06.792Z,35.16
2023-04-19T10:11:40.105Z,35.82
2023-04-19T10:14:12.676Z,36.26
2023-04-19T10:16:40.935Z,36.30
2023-04-19T10:19:14.827Z,35.57
2023-04-19T10:21:46.654Z,35.32
2023-04-19T10:24:15.863Z,34.06
2023-04-19T10:27:12.478Z,34.44
2023-04-19T10:30:04.593Z,34.57
2023-04-19T10:32:41.034Z,34.52
2023-04-19T10:35:11.618Z,34.68
2023-04-19T10:38:02.735Z,35.43
2023-04-19T10:41:05.462Z,36.50
2023-04-19T10:43:35.328Z,35.73
2023-04-19T10:46:09.212Z,34.93
2023-04-19T10:48:44.288Z,33.54
2023-04-19T10:51:19.219Z,32.81
2023-04-19T10:53:57.513Z,34.47
2023-04-19T10:57:02.317Z,34.62
2023-04-19T10:59:34.898Z,34.41
2023-04-19T11:02:06.336Z,34.96
2023-04-19T11:05:03.698Z,33.56
2023-04-19T11:07:41.018Z,33.57
2023-04-19T11:10:11.827Z,33.09
2023-04-19T11:12:45.141Z,32.77
2023-04-19T11:15:13.349Z,32.60
2023-04-19T11:17:43.125Z,32.93
2023-04-19T11:20:14.547Z,33.76
2023-04-19T11:22:45.578Z,34.64
2023-04-19T11:25:16.711Z,33.42
2023-04-19T11:27:46.811Z,33.47
2023-04-19T11:30:19.742Z,35.08
2023-04-19T11:32:50.865Z,34.43
2023-04-19T11:35:22.183Z,33.45
2023-04-19T11:37:51.685Z,33.06
2023-04-19T11:40:22.176Z,34.19
2023-04-19T11:42:56.622Z,33.91
2023-04-19T11:45:33.006Z,33.52
2023-04-19T11:48:07.369Z,33.94
2023-04-19T11:50:38.928Z,33.19
2023-04-19T11:53:19.125Z,33.99
2023-04-19T11:55:48.618Z,33.77
2023-04-19T11:58:31.957Z,33.11
2023-04-19T12:01:06.714Z,31.69
2023-04-19T12:03:41.890Z,33.49
2023-04-19T12:06:14.504Z,33.79
2023-04-19T12:08:47.087Z,33.17
2023-04-19T12:11:16.913Z,31.68
2023-04-19T12:13:45.373Z,31.71
2023-04-19T12:16:14.932Z,32.30
2023-04-19T12:18:50.579Z,31.81
2023-04-19T12:21:30.800Z,32.39
2023-04-19T12:24:44.458Z,32.04
2023-04-19T12:27:53.012Z,32.25
2023-04-19T12:30:21.339Z,31.89
2023-04-19T12:32:51.499Z,31.79
2023-04-19T12:35:19.888Z,31.25
2023-04-19T12:37:47.950Z,32.14
2023-04-19T12:40:16.985Z,31.08
2023-04-19T12:42:45.335Z,29.81
2023-04-19T12:45:21.898Z,30.87
2023-04-19T12:47:50.890Z,31.32
2023-04-19T12:50:19.101Z,30.28
2023-04-19T12:52:47.374Z,30.82
2023-04-19T12:55:15.706Z,31.41
2023-04-19T12:57:44.110Z,29.78
2023-04-19T13:00:14.960Z,31.74
2023-04-19T13:02:43.229Z,29.40
2023-04-19T13:05:12.917Z,29.18
2023-04-19T13:07:41.641Z,28.79
2023-04-19T13:10:10.980Z,29.40
2023-04-19T13:12:39.316Z,29.32
2023-04-19T13:15:09.693Z,28.96
2023-04-19T13:17:39.384Z,29.11
2023-04-19T13:20:09.699Z,27.65
2023-04-19T13:22:37.915Z,26.91
2023-04-19T13:25:06.971Z,25.52
2023-04-19T13:27:35.324Z,26.26
2023-04-19T13:30:03.798Z,26.11
2023-04-19T13:32:32.046Z,26.63
2023-04-19T13:35:01.517Z,25.58
2023-04-19T13:37:30.198Z,27.44
2023-04-19T13:40:10.738Z,25.86
2023-04-19T13:42:45.983Z,28.54
2023-04-19T13:45:14.553Z,28.15
2023-04-19T13:47:42.719Z,26.24
2023-04-19T13:50:13.016Z,28.05
2023-04-19T13:52:41.329Z,27.56
2023-04-19T13:55:10.511Z,26.58
2023-04-19T13:57:38.900Z,26.19
2023-04-19T14:00:09.181Z,26.32
2023-04-19T14:02:37.723Z,28.07
2023-04-19T14:05:07.108Z,27.56
2023-04-19T14:07:36.875Z,26.42
2023-04-19T14:10:07.903Z,26.75
2023-04-19T14:12:36.469Z,26.87
2023-04-19T14:15:05.674Z,26.72
2023-04-19T14:17:35.982Z,25.90
2023-04-19T14:20:07.164Z,26.60
2023-04-19T14:22:37.133Z,26.88
2023-04-19T14:25:06.412Z,25.52
2023-04-19T14:27:34.848Z,26.81
2023-04-19T14:30:03.285Z,26.25
2023-04-19T14:32:31.709Z,27.38
2023-04-19T14:35:00.582Z,26.86
2023-04-19T14:37:28.896Z,26.88
2023-04-19T14:39:58.784Z,26.63
2023-04-19T14:42:26.997Z,28.13
2023-04-19T14:44:55.265Z,26.58
2023-04-19T14:47:23.438Z,26.41
2023-04-19T14:49:51.644Z,26.52
2023-04-19T14:52:19.841Z,27.50
2023-04-19T14:54:48.190Z,27.51
2023-04-19T14:57:17.580Z,26.44
2023-04-19T14:59:45.651Z,27.15
2023-04-19T15:02:14.226Z,27.49
2023-04-19T15:04:42.789Z,26.73
2023-04-19T15:07:11.350Z,26.52
2023-04-19T15:09:40.410Z,26.98
2023-04-19T15:12:08.687Z,27.41
2023-04-19T15:14:39.227Z,26.59
2023-04-19T15:17:07.424Z,27.06
2023-04-19T15:19:35.508Z,28.09
2023-04-19T15:22:04.947Z,26.46
2023-04-19T15:24:35.282Z,27.24
2023-04-19T15:27:04.079Z,26.86
2023-04-19T15:29:32.264Z,27.12
2023-04-19T15:32:02.640Z,27.06
2023-04-19T15:34:30.784Z,27.37
2023-04-19T15:36:58.951Z,26.81
2023-04-19T15:39:27.092Z,27.05
2023-04-19T15:41:55.256Z,27.77
2023-04-19T15:44:23.374Z,25.25
2023-04-19T15:46:51.623Z,26.49
2023-04-19T15:49:21.104Z,26.80
2023-04-19T15:51:49.116Z,26.65
2023-04-19T15:54:17.252Z,26.38
2023-04-19T15:56:45.472Z,26.12
2023-04-19T15:59:13.545Z,27.38
2023-04-19T16:01:41.858Z,27.05
2023-04-19T16:04:10.203Z,28.52
2023-04-19T16:06:39.759Z,28.03
2023-04-19T16:09:08.303Z,28.64
2023-04-19T16:11:36.671Z,27.85
2023-04-19T16:14:04.841Z,28.32
2023-04-19T16:16:34.370Z,28.94
2023-04-19T16:19:02.656Z,28.23
2023-04-19T16:21:30.863Z,28.17
2023-04-19T16:24:00.892Z,28.54
2023-04-19T16:26:29.014Z,28.71
2023-04-19T16:28:57.175Z,28.61
2023-04-19T16:31:25.515Z,30.13
2023-04-19T16:33:53.651Z,30.13
2023-04-19T16:36:21.747Z,30.29
2023-04-19T16:38:49.828Z,29.97
2023-04-19T16:41:19.218Z,30.32
2023-04-19T16:43:47.345Z,32.05
2023-04-19T16:46:15.566Z,30.93
2023-04-19T16:48:43.914Z,31.18
2023-04-19T16:51:12.089Z,31.52
2023-04-19T16:53:40.217Z,32.16
2023-04-19T16:56:08.888Z,31.26
2023-04-19T16:58:38.579Z,31.53
2023-04-19T17:01:08.937Z,31.50
2023-04-19T17:03:37.267Z,32.24
2023-04-19T17:06:06.267Z,32.27
2023-04-19T17:08:34.795Z,33.03
2023-04-19T17:11:03.009Z,32.45
2023-04-19T17:13:31.127Z,33.20
2023-04-19T17:16:00.795Z,33.12
2023-04-19T17:18:28.920Z,34.24
2023-04-19T17:20:57.056Z,34.28
2023-04-19T17:23:25.235Z,34.09
2023-04-19T17:25:53.346Z,34.15
2023-04-19T17:28:21.480Z,33.48
2023-04-19T17:30:49.732Z,33.98
2023-04-19T17:33:19.235Z,35.52
2023-04-19T17:35:47.560Z,35.35
2023-04-19T17:38:15.847Z,35.56
2023-04-19T17:40:45.083Z,35.71
2023-04-19T17:43:13.815Z,35.93
2023-04-19T17:45:41.875Z,36.54
2023-04-19T17:48:10.006Z,37.37
2023-04-19T17:50:39.807Z,37.85
2023-04-19T17:53:08.069Z,37.87
2023-04-19T17:55:36.383Z,38.60
2023-04-19T17:58:04.638Z,38.69
2023-04-19T18:00:32.691Z,38.76
2023-04-19T18:03:01.081Z,38.98
2023-04-19T18:05:29.463Z,39.27
2023-04-19T18:07:59.388Z,39.51
2023-04-19T18:10:27.870Z,39.38
2023-04-19T18:12:55.945Z,39.53
2023-04-19T18:15:24.135Z,40.28
2023-04-19T18:17:52.541Z,40.33
2023-04-19T18:20:21.499Z,41.14
2023-04-19T18:22:50.668Z,42.61
2023-04-19T18:25:20.302Z,43.03
2023-04-19T18:27:49.271Z,43.43
2023-04-19T18:30:17.743Z,43.79
2023-04-19T18:32:45.920Z,43.86
2023-04-19T18:35:14.281Z,44.21
2023-04-19T18:37:42.738Z,44.79
2023-04-19T18:40:12.407Z,45.04
2023-04-19T18:42:41.828Z,45.63
2023-04-19T18:45:14.419Z,46.26
2023-04-19T18:47:42.583Z,45.47
2023-04-19T18:50:11.993Z,46.06
2023-04-19T18:52:40.455Z,46.37
2023-04-19T18:55:11.457Z,46.56
2023-04-19T18:57:41.063Z,46.96
2023-04-19T19:00:11.115Z,46.95
2023-04-19T19:02:40.848Z,47.54
2023-04-19T19:05:13.707Z,47.62
2023-04-19T19:07:42.352Z,47.83
2023-04-19T19:12:44.156Z,49.08
2023-04-19T19:15:14.330Z,49.10
2023-04-19T19:17:49.327Z,49.43
2023-04-19T19:20:20.999Z,49.12
2023-04-19T19:22:49.299Z,49.47
2023-04-19T19:25:17.595Z,49.79
2023-04-19T19:28:06.157Z,49.96
2023-04-19T19:30:39.860Z,50.94
2023-04-19T19:33:08.282Z,50.98
2023-04-19T19:35:36.667Z,51.29
2023-04-19T19:38:05.166Z,51.05
2023-04-19T19:40:33.290Z,51.16
2023-04-19T19:43:03.257Z,51.61
2023-04-19T19:45:32.556Z,51.56
2023-04-19T19:48:01.201Z,51.85
2023-04-19T19:53:02.533Z,52.46
2023-04-19T19:55:30.980Z,53.09
2023-04-19T20:00:45.108Z,53.46
2023-04-19T20:03:24.732Z,53.08
2023-04-19T20:06:05.529Z,53.22
2023-04-19T20:08:47.731Z,54.18
2023-04-19T20:11:16.394Z,53.78
2023-04-19T20:13:44.568Z,53.15
2023-04-19T20:16:14.690Z,53.65
2023-04-19T20:18:43.970Z,53.69
2023-04-19T20:21:12.113Z,54.33
2023-04-19T20:23:40.770Z,55.06
2023-04-19T20:26:08.976Z,55.15
2023-04-19T20:28:37.225Z,54.65
2023-04-19T20:31:05.499Z,54.96
2023-04-19T20:33:35.163Z,54.71
2023-04-19T20:36:03.804Z,54.78
2023-04-19T20:38:34.590Z,54.36
2023-04-19T20:41:03.225Z,55.22
2023-04-19T20:43:31.691Z,55.72
2023-04-19T20:45:59.874Z,56.31
2023-04-19T20:48:28.159Z,55.70
2023-04-19T20:50:57.677Z,56.68
2023-04-19T20:53:25.778Z,56.39
2023-04-19T20:55:53.845Z,56.49
2023-04-19T20:58:22.136Z,56.26
2023-04-19T21:00:50.940Z,56.13
2023-04-19T21:03:19.245Z,56.68
2023-04-19T21:05:47.416Z,58.08
2023-04-19T21:08:18.700Z,57.39
2023-04-19T21:10:49.255Z,57.17
2023-04-19T21:13:17.388Z,57.12
2023-04-19T21:15:45.492Z,57.00
2023-04-19T21:18:13.598Z,57.65
2023-04-19T21:20:41.666Z,57.77
2023-04-19T21:23:10.083Z,57.07
2023-04-19T21:25:39.556Z,57.07
2023-04-19T21:28:09.623Z,56.71
2023-04-19T21:30:40.688Z,56.45
2023-04-19T21:33:09.062Z,56.56
2023-04-19T21:35:37.238Z,55.92
2023-04-19T21:38:05.516Z,55.20
2023-04-19T21:40:33.629Z,54.81
2023-04-19T21:43:03.051Z,55.08
2023-04-19T21:45:31.479Z,55.34
2023-04-19T21:47:59.545Z,54.47
2023-04-19T21:50:27.800Z,54.48
2023-04-19T21:52:55.874Z,54.18
2023-04-19T21:55:26.655Z,53.82
2023-04-19T21:57:54.753Z,53.41
2023-04-19T22:00:24.354Z,53.14
2023-04-19T22:02:52.804Z,53.60
2023-04-19T22:05:21.108Z,53.92
2023-04-19T22:07:49.306Z,53.92
2023-04-19T22:10:17.439Z,54.22
2023-04-19T22:12:55.523Z,53.90
2023-04-19T22:15:27.888Z,53.46
2023-04-19T22:17:57.442Z,53.88
2023-04-19T22:20:25.954Z,54.17
2023-04-19T22:22:54.176Z,53.89
2023-04-19T22:25:22.704Z,54.64
2023-04-19T22:27:50.964Z,54.50
2023-04-19T22:30:19.029Z,54.91
2023-04-19T22:32:52.004Z,54.67
2023-04-19T22:35:22.501Z,54.89
2023-04-19T22:37:51.879Z,55.38
2023-04-19T22:40:21.909Z,55.03
2023-04-19T22:42:50.028Z,55.86
2023-04-19T22:45:18.499Z,56.19
2023-04-19T22:47:48.039Z,55.82
2023-04-19T22:50:16.431Z,55.26
2023-04-19T22:52:44.581Z,55.25
2023-04-19T22:55:12.925Z,55.50
2023-04-19T22:57:41.425Z,55.32
2023-04-19T23:00:11.587Z,55.30
2023-04-19T23:02:40.464Z,55.27
2023-04-19T23:05:11.270Z,54.94
2023-04-19T23:07:41.872Z,55.14
2023-04-19T23:10:12.322Z,55.35
2023-04-19T23:12:40.609Z,55.20
2023-04-19T23:15:11.004Z,54.84
2023-04-19T23:17:40.323Z,54.57
2023-04-19T23:20:11.871Z,54.59
2023-04-19T23:22:40.353Z,55.03
2023-04-19T23:25:10.298Z,54.53
2023-04-19T23:27:38.461Z,55.29
2023-04-19T23:30:08.934Z,54.41
2023-04-19T23:32:37.145Z,56.13
2023-04-19T23:35:06.097Z,55.63
2023-04-19T23:37:36.648Z,55.47
2023-04-19T23:40:06.144Z,55.70
2023-04-19T23:42:34.522Z,55.54
2023-04-19T23:45:04.354Z,56.10
2023-04-19T23:47:33.539Z,56.17
2023-04-19T23:50:01.738Z,56.13
2023-04-19T23:52:29.870Z,55.83
2023-04-19T23:54:59.291Z,56.06
2023-04-19T23:57:27.396Z,55.65
2023-04-19T23:59:55.753Z,54.96
